Camellia — VRCP9 — position and weather

sailwx.info

Track history (hours):
 
Tides and Currents Weather Stations Pressure Air Temp Water Temp Dewpoint Dewpoint Depression Visibility Wind Speed Wind Dir Waves Ship Positions

Camellia

Last reported at 2016-Dec-09 01:31 UTC. Time now 2016-Dec-09 02:05 UTC.
Position N 49°27' E 000°10'.

Length 222 m; draft 9.5 m.

Type: Ship (hazmat cat C). MMSI: 477791900.

Date/timePositionNaut miles runAvg speedWind from/ knotsBaromVisibWave heightAir tempDewpointWater temp
2016-Dec-09 01:31N 49°27' E 000°10'0 0.0
2016-Dec-09 00:31N 49°27' E 000°10'0 0.0
2016-Dec-08 23:31N 49°27' E 000°10'0 0.0
2016-Dec-08 22:31N 49°27' E 000°10'0 0.0
2016-Dec-08 21:31N 49°27' E 000°10'0 0.0
2016-Dec-08 20:31N 49°27' E 000°10'0 0.0
2016-Dec-08 19:31N 49°27' E 000°10'0 0.0
2016-Dec-08 18:31N 49°27' E 000°10'0 0.0
2016-Dec-08 17:31N 49°27' E 000°10'0 0.0
2016-Dec-08 16:31N 49°27' E 000°10'0 0.0
2016-Dec-08 15:34N 49°27' E 000°10'0 0.0
2016-Dec-08 14:34N 49°27' E 000°10'1 1.2
2016-Dec-08 13:33N 49°28' E 000°08'1212.2
2016-Dec-08 12:34N 49°34' W 000°08'1 0.6
2016-Dec-08 11:33N 49°34' W 000°08'0 0.0
2016-Dec-08 10:34N 49°34' W 000°08'0 0.0
2016-Dec-08 09:34N 49°34' W 000°08'0 0.0
2016-Dec-08 08:34N 49°34' W 000°08'0 0.0
2016-Dec-08 07:34N 49°34' W 000°08'7 7.3
2016-Dec-08 06:33N 49°41' W 000°06'1817.8
2016-Dec-08 05:33N 49°59' W 000°04'1817.7
2016-Dec-08 04:33N 50°17' W 000°04'1514.7
2016-Dec-08 03:33N 50°30' E 000°06'1716.6
2016-Dec-08 02:33N 50°36' E 000°31'1817.0
2016-Dec-08 01:31N 50°47' E 000°53'1718.1
2016-Dec-08 00:33N 50°58' E 001°15'1919.1
2016-Dec-07 23:33N 51°09' E 001°38'1818.2
2016-Dec-07 22:33N 51°24' E 001°55'1717.1
2016-Dec-07 21:33N 51°38' E 002°13'1716.8
2016-Dec-07 20:33N 51°51' E 002°29'1716.1
2016-Dec-07 19:32N 52°03' E 002°48'1616.7
2016-Dec-07 18:33N 52°04' E 003°15'1716.8
2016-Dec-07 17:33N 52°03' E 003°42'1312.8
2016-Dec-07 16:33N 51°60' E 004°02'1111.2
2016-Dec-07 15:34N 51°54' E 004°17'5 5.5
2016-Dec-07 14:33N 51°54' E 004°26'0 0.0
2016-Dec-07 13:33N 51°54' E 004°26'0 0.0
2016-Dec-07 12:33N 51°54' E 004°26'0 0.0
2016-Dec-07 11:33N 51°54' E 004°26'0 0.0
2016-Dec-07 10:30N 51°54' E 004°26'0 0.0
2016-Dec-07 09:33N 51°54' E 004°26'0 0.0
2016-Dec-07 08:33N 51°54' E 004°26'0 0.0
2016-Dec-07 07:33N 51°54' E 004°26'0 0.0
2016-Dec-07 06:33N 51°54' E 004°26'0 0.0
2016-Dec-07 05:33N 51°54' E 004°26'0 0.0
2016-Dec-07 04:33N 51°54' E 004°26'3 3.0
2016-Dec-07 03:33N 51°54' E 004°21'8 7.7
2016-Dec-07 02:33N 51°57' E 004°10'1111.4
2016-Dec-07 01:33N 51°60' E 003°52'5 5.0
2016-Dec-07 00:33N 51°59' E 003°44'1514.7
2016-Dec-06 23:33N 51°55' E 003°21'1817.7
2016-Dec-06 22:33N 51°44' E 002°59'1818.1
2016-Dec-06 21:33N 51°28' E 002°44'10 9.9
2016-Dec-06 20:33N 51°23' E 002°58'9 4.3
2016-Dec-06 18:33N 51°21' E 003°11'0 0.0
2016-Dec-06 17:29N 51°21' E 003°11'0 0.0
2016-Dec-06 16:32N 51°21' E 003°11'0 0.0
2016-Dec-06 15:32N 51°21' E 003°11'0 0.0
2016-Dec-06 14:32N 51°21' E 003°11'0 0.0
2016-Dec-06 13:32N 51°21' E 003°11'4 4.4
2016-Dec-06 12:33N 51°24' E 003°06'1615.8
2016-Dec-06 11:34N 51°22' E 002°41'1716.5
2016-Dec-06 10:33N 51°17' E 002°16'1919.2
2016-Dec-06 09:34N 51°07' E 001°50'6 5.5
2016-Dec-06 08:33N 51°02' E 001°48'1211.7
2016-Dec-06 07:34N 51°03' E 002°07'4 3.7
2016-Dec-06 06:31N 51°01' E 002°11'0 0.0
2016-Dec-06 05:34N 51°01' E 002°11'0 0.0
2016-Dec-06 04:33N 51°01' E 002°11'0 0.0
2016-Dec-06 03:31N 51°01' E 002°11'0 0.0
2016-Dec-06 02:33N 51°01' E 002°11'0 0.0
2016-Dec-06 01:33N 51°01' E 002°11'0 0.0
2016-Dec-06 00:30N 51°01' E 002°11'0 0.0
2016-Dec-05 23:33N 51°01' E 002°11'0 0.0
2016-Dec-05 22:33N 51°01' E 002°11'0 0.0
2016-Dec-05 21:33N 51°01' E 002°11'0 0.0
2016-Dec-05 20:33N 51°01' E 002°11'0 0.0
2016-Dec-05 19:33N 51°01' E 002°11'0 0.0
2016-Dec-05 18:33N 51°01' E 002°11'0 0.0
2016-Dec-05 17:33N 51°01' E 002°11'0 0.0
2016-Dec-05 16:33N 51°01' E 002°11'0 0.0
2016-Dec-05 15:33N 51°01' E 002°11'0 0.0
2016-Dec-05 14:30N 51°01' E 002°11'0 0.0
2016-Dec-05 13:33N 51°01' E 002°11'0 0.0
2016-Dec-05 12:33N 51°01' E 002°11'0 0.0
2016-Dec-05 11:33N 51°01' E 002°11'0 0.0
2016-Dec-05 10:33N 51°01' E 002°11'0 0.0
2016-Dec-05 09:33N 51°01' E 002°11'0 0.0
2016-Dec-05 08:33N 51°01' E 002°11'0 0.0
2016-Dec-05 07:33N 51°01' E 002°11'0 0.0
2016-Dec-05 06:33N 51°01' E 002°11'0 0.0
2016-Dec-05 05:33N 51°01' E 002°11'0 0.0
2016-Dec-05 04:33N 51°01' E 002°11'7 6.8
2016-Dec-05 03:34N 51°02' E 002°01'9 9.0
2016-Dec-05 02:33N 51°02' E 001°46'7517.5
2016-Dec-04 22:18N 50°20' E 000°08'1520.3
2016-Dec-04 21:33N 50°16' W 000°15'2020.1
2016-Dec-04 20:33N 50°11' W 000°45'1919.4
2016-Dec-04 19:33N 50°06' W 001°14'1918.8
2016-Dec-04 18:33N 50°01' W 001°42'1817.7
2016-Dec-04 17:33N 49°56' W 002°09'5517.6
2016-Dec-04 14:27N 49°42' W 003°30'1718.0
2016-Dec-04 13:30N 49°37' W 003°56'3718.0
2016-Dec-04 11:28N 49°28' W 004°51'1718.3
2016-Dec-04 10:32N 49°23' W 005°16'1818.5
2016-Dec-04 09:33N 49°17' W 005°42'1918.8
2016-Dec-04 08:33N 49°11' W 006°10'1717.1
2016-Dec-04 07:33N 49°06' W 006°35'  
Track history (hours):
 
Tides and Currents Weather Stations Pressure Air Temp Water Temp Dewpoint Dewpoint Depression Visibility Wind Speed Wind Dir Waves Ship Positions

Camellia

Last reported at 2016-Dec-09 01:31 UTC. Time now 2016-Dec-09 02:05 UTC.
Position N 49°27' E 000°10'.

Length 222 m; draft 9.5 m.

Type: Ship (hazmat cat C). MMSI: 477791900.

Date/timePositionNaut miles runAvg speedWind from/ knotsBaromVisibWave heightAir tempDewpointWater temp
2016-Dec-09 01:31N 49°27' E 000°10'0 0.0
2016-Dec-09 00:31N 49°27' E 000°10'0 0.0
2016-Dec-08 23:31N 49°27' E 000°10'0 0.0
2016-Dec-08 22:31N 49°27' E 000°10'0 0.0
2016-Dec-08 21:31N 49°27' E 000°10'0 0.0
2016-Dec-08 20:31N 49°27' E 000°10'0 0.0
2016-Dec-08 19:31N 49°27' E 000°10'0 0.0
2016-Dec-08 18:31N 49°27' E 000°10'0 0.0
2016-Dec-08 17:31N 49°27' E 000°10'0 0.0
2016-Dec-08 16:31N 49°27' E 000°10'0 0.0
2016-Dec-08 15:34N 49°27' E 000°10'0 0.0
2016-Dec-08 14:34N 49°27' E 000°10'1 1.2
2016-Dec-08 13:33N 49°28' E 000°08'1212.2
2016-Dec-08 12:34N 49°34' W 000°08'1 0.6
2016-Dec-08 11:33N 49°34' W 000°08'0 0.0
2016-Dec-08 10:34N 49°34' W 000°08'0 0.0
2016-Dec-08 09:34N 49°34' W 000°08'0 0.0
2016-Dec-08 08:34N 49°34' W 000°08'0 0.0
2016-Dec-08 07:34N 49°34' W 000°08'7 7.3
2016-Dec-08 06:33N 49°41' W 000°06'1817.8
2016-Dec-08 05:33N 49°59' W 000°04'1817.7
2016-Dec-08 04:33N 50°17' W 000°04'1514.7
2016-Dec-08 03:33N 50°30' E 000°06'1716.6
2016-Dec-08 02:33N 50°36' E 000°31'1817.0
2016-Dec-08 01:31N 50°47' E 000°53'1718.1
2016-Dec-08 00:33N 50°58' E 001°15'1919.1
2016-Dec-07 23:33N 51°09' E 001°38'1818.2
2016-Dec-07 22:33N 51°24' E 001°55'1717.1
2016-Dec-07 21:33N 51°38' E 002°13'1716.8
2016-Dec-07 20:33N 51°51' E 002°29'1716.1
2016-Dec-07 19:32N 52°03' E 002°48'1616.7
2016-Dec-07 18:33N 52°04' E 003°15'1716.8
2016-Dec-07 17:33N 52°03' E 003°42'1312.8
2016-Dec-07 16:33N 51°60' E 004°02'1111.2
2016-Dec-07 15:34N 51°54' E 004°17'5 5.5
2016-Dec-07 14:33N 51°54' E 004°26'0 0.0
2016-Dec-07 13:33N 51°54' E 004°26'0 0.0
2016-Dec-07 12:33N 51°54' E 004°26'0 0.0
2016-Dec-07 11:33N 51°54' E 004°26'0 0.0
2016-Dec-07 10:30N 51°54' E 004°26'0 0.0
2016-Dec-07 09:33N 51°54' E 004°26'0 0.0
2016-Dec-07 08:33N 51°54' E 004°26'0 0.0
2016-Dec-07 07:33N 51°54' E 004°26'0 0.0
2016-Dec-07 06:33N 51°54' E 004°26'0 0.0
2016-Dec-07 05:33N 51°54' E 004°26'0 0.0
2016-Dec-07 04:33N 51°54' E 004°26'3 3.0
2016-Dec-07 03:33N 51°54' E 004°21'8 7.7
2016-Dec-07 02:33N 51°57' E 004°10'1111.4
2016-Dec-07 01:33N 51°60' E 003°52'5 5.0
2016-Dec-07 00:33N 51°59' E 003°44'1514.7
2016-Dec-06 23:33N 51°55' E 003°21'1817.7
2016-Dec-06 22:33N 51°44' E 002°59'1818.1
2016-Dec-06 21:33N 51°28' E 002°44'10 9.9
2016-Dec-06 20:33N 51°23' E 002°58'9 4.3
2016-Dec-06 18:33N 51°21' E 003°11'0 0.0
2016-Dec-06 17:29N 51°21' E 003°11'0 0.0
2016-Dec-06 16:32N 51°21' E 003°11'0 0.0
2016-Dec-06 15:32N 51°21' E 003°11'0 0.0
2016-Dec-06 14:32N 51°21' E 003°11'0 0.0
2016-Dec-06 13:32N 51°21' E 003°11'4 4.4
2016-Dec-06 12:33N 51°24' E 003°06'1615.8
2016-Dec-06 11:34N 51°22' E 002°41'1716.5
2016-Dec-06 10:33N 51°17' E 002°16'1919.2
2016-Dec-06 09:34N 51°07' E 001°50'6 5.5
2016-Dec-06 08:33N 51°02' E 001°48'1211.7
2016-Dec-06 07:34N 51°03' E 002°07'4 3.7
2016-Dec-06 06:31N 51°01' E 002°11'0 0.0
2016-Dec-06 05:34N 51°01' E 002°11'0 0.0
2016-Dec-06 04:33N 51°01' E 002°11'0 0.0
2016-Dec-06 03:31N 51°01' E 002°11'0 0.0
2016-Dec-06 02:33N 51°01' E 002°11'0 0.0
2016-Dec-06 01:33N 51°01' E 002°11'0 0.0
2016-Dec-06 00:30N 51°01' E 002°11'0 0.0
2016-Dec-05 23:33N 51°01' E 002°11'0 0.0
2016-Dec-05 22:33N 51°01' E 002°11'0 0.0
2016-Dec-05 21:33N 51°01' E 002°11'0 0.0
2016-Dec-05 20:33N 51°01' E 002°11'0 0.0
2016-Dec-05 19:33N 51°01' E 002°11'0 0.0
2016-Dec-05 18:33N 51°01' E 002°11'0 0.0
2016-Dec-05 17:33N 51°01' E 002°11'0 0.0
2016-Dec-05 16:33N 51°01' E 002°11'0 0.0
2016-Dec-05 15:33N 51°01' E 002°11'0 0.0
2016-Dec-05 14:30N 51°01' E 002°11'0 0.0
2016-Dec-05 13:33N 51°01' E 002°11'0 0.0
2016-Dec-05 12:33N 51°01' E 002°11'0 0.0
2016-Dec-05 11:33N 51°01' E 002°11'0 0.0
2016-Dec-05 10:33N 51°01' E 002°11'0 0.0
2016-Dec-05 09:33N 51°01' E 002°11'0 0.0
2016-Dec-05 08:33N 51°01' E 002°11'0 0.0
2016-Dec-05 07:33N 51°01' E 002°11'0 0.0
2016-Dec-05 06:33N 51°01' E 002°11'0 0.0
2016-Dec-05 05:33N 51°01' E 002°11'0 0.0
2016-Dec-05 04:33N 51°01' E 002°11'7 6.8
2016-Dec-05 03:34N 51°02' E 002°01'9 9.0
2016-Dec-05 02:33N 51°02' E 001°46'7517.5
2016-Dec-04 22:18N 50°20' E 000°08'1520.3
2016-Dec-04 21:33N 50°16' W 000°15'2020.1
2016-Dec-04 20:33N 50°11' W 000°45'1919.4
2016-Dec-04 19:33N 50°06' W 001°14'1918.8
2016-Dec-04 18:33N 50°01' W 001°42'1817.7
2016-Dec-04 17:33N 49°56' W 002°09'5517.6
2016-Dec-04 14:27N 49°42' W 003°30'1718.0
2016-Dec-04 13:30N 49°37' W 003°56'3718.0
2016-Dec-04 11:28N 49°28' W 004°51'1718.3
2016-Dec-04 10:32N 49°23' W 005°16'1818.5
2016-Dec-04 09:33N 49°17' W 005°42'1918.8
2016-Dec-04 08:33N 49°11' W 006°10'1717.1
2016-Dec-04 07:33N 49°06' W 006°35'  

Dump ship's entire track history